sensor_id;sensor_type;location;lat;lon;timestamp;P1;durP1;ratioP1;P2;durP2;ratioP2
72951;SDS011;61102;51.956;5.878;2023-06-01T00:00:46;11.70;;;4.82;;
72951;SDS011;61102;51.956;5.878;2023-06-01T00:03:16;9.82;;;4.28;;
72951;SDS011;61102;51.956;5.878;2023-06-01T00:05:43;14.43;;;4.78;;
72951;SDS011;61102;51.956;5.878;2023-06-01T00:08:09;13.73;;;5.20;;
72951;SDS011;61102;51.956;5.878;2023-06-01T00:10:36;11.80;;;4.05;;
72951;SDS011;61102;51.956;5.878;2023-06-01T00:13:02;13.02;;;5.90;;
72951;SDS011;61102;51.956;5.878;2023-06-01T00:15:28;10.68;;;4.47;;
72951;SDS011;61102;51.956;5.878;2023-06-01T00:17:54;14.23;;;5.93;;
72951;SDS011;61102;51.956;5.878;2023-06-01T00:20:21;14.55;;;6.30;;
72951;SDS011;61102;51.956;5.878;2023-06-01T00:22:50;12.13;;;5.28;;
72951;SDS011;61102;51.956;5.878;2023-06-01T00:25:16;12.77;;;5.50;;
72951;SDS011;61102;51.956;5.878;2023-06-01T00:27:42;12.10;;;5.60;;
72951;SDS011;61102;51.956;5.878;2023-06-01T00:30:08;11.57;;;5.35;;
72951;SDS011;61102;51.956;5.878;2023-06-01T00:32:35;12.90;;;4.97;;
72951;SDS011;61102;51.956;5.878;2023-06-01T00:35:01;10.85;;;5.25;;
72951;SDS011;61102;51.956;5.878;2023-06-01T00:37:28;13.35;;;5.40;;
72951;SDS011;61102;51.956;5.878;2023-06-01T00:39:54;11.25;;;4.13;;
72951;SDS011;61102;51.956;5.878;2023-06-01T00:42:20;12.10;;;5.05;;
72951;SDS011;61102;51.956;5.878;2023-06-01T00:44:46;10.18;;;4.75;;
72951;SDS011;61102;51.956;5.878;2023-06-01T00:47:12;8.95;;;4.30;;
72951;SDS011;61102;51.956;5.878;2023-06-01T00:49:39;12.05;;;4.90;;
72951;SDS011;61102;51.956;5.878;2023-06-01T00:52:05;11.18;;;4.68;;
72951;SDS011;61102;51.956;5.878;2023-06-01T00:54:32;9.55;;;4.53;;
72951;SDS011;61102;51.956;5.878;2023-06-01T00:56:59;13.73;;;3.88;;
72951;SDS011;61102;51.956;5.878;2023-06-01T00:59:27;11.82;;;3.75;;
72951;SDS011;61102;51.956;5.878;2023-06-01T01:01:53;9.77;;;4.05;;
72951;SDS011;61102;51.956;5.878;2023-06-01T01:04:20;11.57;;;4.53;;
72951;SDS011;61102;51.956;5.878;2023-06-01T01:12:52;9.77;;;3.72;;
72951;SDS011;61102;51.956;5.878;2023-06-01T01:15:29;7.70;;;2.97;;
72951;SDS011;61102;51.956;5.878;2023-06-01T01:18:04;8.35;;;3.42;;
72951;SDS011;61102;51.956;5.878;2023-06-01T01:20:40;8.73;;;3.30;;
72951;SDS011;61102;51.956;5.878;2023-06-01T01:28:42;8.00;;;3.38;;
72951;SDS011;61102;51.956;5.878;2023-06-01T01:31:23;10.80;;;3.85;;
72951;SDS011;61102;51.956;5.878;2023-06-01T01:33:55;10.30;;;3.38;;
72951;SDS011;61102;51.956;5.878;2023-06-01T01:36:23;12.68;;;4.45;;
72951;SDS011;61102;51.956;5.878;2023-06-01T01:38:50;11.63;;;4.25;;
72951;SDS011;61102;51.956;5.878;2023-06-01T01:41:16;10.25;;;3.65;;
72951;SDS011;61102;51.956;5.878;2023-06-01T01:43:43;10.85;;;4.22;;
72951;SDS011;61102;51.956;5.878;2023-06-01T01:48:48;9.52;;;3.50;;
72951;SDS011;61102;51.956;5.878;2023-06-01T01:54:43;10.38;;;4.00;;
72951;SDS011;61102;51.956;5.878;2023-06-01T01:57:12;10.85;;;3.25;;
72951;SDS011;61102;51.956;5.878;2023-06-01T01:59:40;10.23;;;3.33;;
72951;SDS011;61102;51.956;5.878;2023-06-01T02:02:08;10.85;;;3.67;;
72951;SDS011;61102;51.956;5.878;2023-06-01T02:04:39;8.90;;;3.65;;
72951;SDS011;61102;51.956;5.878;2023-06-01T02:07:07;11.93;;;4.00;;
72951;SDS011;61102;51.956;5.878;2023-06-01T02:09:34;11.55;;;3.92;;
72951;SDS011;61102;51.956;5.878;2023-06-01T02:12:01;11.65;;;4.35;;
72951;SDS011;61102;51.956;5.878;2023-06-01T02:14:28;13.50;;;4.53;;
72951;SDS011;61102;51.956;5.878;2023-06-01T02:16:54;10.55;;;4.00;;
72951;SDS011;61102;51.956;5.878;2023-06-01T02:19:21;8.70;;;3.80;;
72951;SDS011;61102;51.956;5.878;2023-06-01T02:21:47;9.57;;;3.78;;
72951;SDS011;61102;51.956;5.878;2023-06-01T02:24:15;9.40;;;3.72;;
72951;SDS011;61102;51.956;5.878;2023-06-01T02:26:41;9.38;;;3.83;;
72951;SDS011;61102;51.956;5.878;2023-06-01T02:29:08;9.68;;;3.30;;
72951;SDS011;61102;51.956;5.878;2023-06-01T02:31:34;11.13;;;3.60;;
72951;SDS011;61102;51.956;5.878;2023-06-01T02:34:01;12.10;;;3.67;;
72951;SDS011;61102;51.956;5.878;2023-06-01T02:36:29;8.07;;;3.28;;
72951;SDS011;61102;51.956;5.878;2023-06-01T02:38:58;9.90;;;3.67;;
72951;SDS011;61102;51.956;5.878;2023-06-01T02:41:24;9.77;;;3.53;;
72951;SDS011;61102;51.956;5.878;2023-06-01T02:43:51;9.73;;;3.72;;
72951;SDS011;61102;51.956;5.878;2023-06-01T02:46:20;8.77;;;2.92;;
72951;SDS011;61102;51.956;5.878;2023-06-01T02:48:47;9.57;;;3.70;;
72951;SDS011;61102;51.956;5.878;2023-06-01T02:51:14;12.15;;;3.50;;
72951;SDS011;61102;51.956;5.878;2023-06-01T02:53:43;9.45;;;3.17;;
72951;SDS011;61102;51.956;5.878;2023-06-01T02:56:12;9.48;;;3.53;;
72951;SDS011;61102;51.956;5.878;2023-06-01T02:59:04;11.55;;;3.80;;
72951;SDS011;61102;51.956;5.878;2023-06-01T03:01:35;11.38;;;3.70;;
72951;SDS011;61102;51.956;5.878;2023-06-01T03:04:03;10.15;;;3.92;;
72951;SDS011;61102;51.956;5.878;2023-06-01T03:06:31;9.48;;;3.15;;
72951;SDS011;61102;51.956;5.878;2023-06-01T03:09:12;10.35;;;3.38;;
72951;SDS011;61102;51.956;5.878;2023-06-01T03:11:52;7.50;;;2.83;;
72951;SDS011;61102;51.956;5.878;2023-06-01T03:14:18;8.63;;;3.25;;
72951;SDS011;61102;51.956;5.878;2023-06-01T03:16:46;10.38;;;3.78;;
72951;SDS011;61102;51.956;5.878;2023-06-01T03:19:17;8.90;;;3.28;;
72951;SDS011;61102;51.956;5.878;2023-06-01T03:21:46;9.27;;;3.10;;
72951;SDS011;61102;51.956;5.878;2023-06-01T03:24:15;7.82;;;2.90;;
72951;SDS011;61102;51.956;5.878;2023-06-01T03:26:43;8.70;;;3.03;;
72951;SDS011;61102;51.956;5.878;2023-06-01T03:29:10;8.50;;;3.03;;
72951;SDS011;61102;51.956;5.878;2023-06-01T03:31:36;10.68;;;3.60;;
72951;SDS011;61102;51.956;5.878;2023-06-01T03:34:02;12.05;;;4.15;;
72951;SDS011;61102;51.956;5.878;2023-06-01T03:36:29;8.98;;;3.35;;
72951;SDS011;61102;51.956;5.878;2023-06-01T03:38:55;13.45;;;3.80;;
72951;SDS011;61102;51.956;5.878;2023-06-01T03:41:25;11.15;;;3.47;;
72951;SDS011;61102;51.956;5.878;2023-06-01T03:43:51;10.07;;;3.38;;
72951;SDS011;61102;51.956;5.878;2023-06-01T03:46:18;9.88;;;3.00;;
72951;SDS011;61102;51.956;5.878;2023-06-01T03:48:44;9.23;;;2.70;;
72951;SDS011;61102;51.956;5.878;2023-06-01T03:51:11;9.10;;;3.33;;
72951;SDS011;61102;51.956;5.878;2023-06-01T03:53:37;10.57;;;3.38;;
72951;SDS011;61102;51.956;5.878;2023-06-01T03:56:04;8.13;;;2.47;;
72951;SDS011;61102;51.956;5.878;2023-06-01T03:58:32;9.52;;;2.90;;
72951;SDS011;61102;51.956;5.878;2023-06-01T04:00:58;9.52;;;3.03;;
72951;SDS011;61102;51.956;5.878;2023-06-01T04:03:27;12.25;;;3.10;;
72951;SDS011;61102;51.956;5.878;2023-06-01T04:05:54;8.52;;;3.10;;
72951;SDS011;61102;51.956;5.878;2023-06-01T04:08:25;7.10;;;2.80;;
72951;SDS011;61102;51.956;5.878;2023-06-01T04:10:52;9.70;;;2.92;;
72951;SDS011;61102;51.956;5.878;2023-06-01T04:13:19;11.25;;;2.75;;
72951;SDS011;61102;51.956;5.878;2023-06-01T04:15:46;11.10;;;2.97;;
72951;SDS011;61102;51.956;5.878;2023-06-01T04:18:14;10.38;;;3.03;;
72951;SDS011;61102;51.956;5.878;2023-06-01T04:21:01;9.27;;;2.83;;
72951;SDS011;61102;51.956;5.878;2023-06-01T04:23:27;11.43;;;3.10;;
72951;SDS011;61102;51.956;5.878;2023-06-01T04:25:54;9.00;;;2.83;;
72951;SDS011;61102;51.956;5.878;2023-06-01T04:28:24;12.45;;;3.00;;
72951;SDS011;61102;51.956;5.878;2023-06-01T04:30:50;8.82;;;2.63;;
72951;SDS011;61102;51.956;5.878;2023-06-01T04:33:17;8.73;;;3.08;;
72951;SDS011;61102;51.956;5.878;2023-06-01T04:35:44;9.32;;;3.15;;
72951;SDS011;61102;51.956;5.878;2023-06-01T04:38:12;8.98;;;2.72;;
72951;SDS011;61102;51.956;5.878;2023-06-01T04:40:39;9.32;;;2.55;;
72951;SDS011;61102;51.956;5.878;2023-06-01T04:43:06;9.60;;;2.55;;
72951;SDS011;61102;51.956;5.878;2023-06-01T04:45:32;10.75;;;2.95;;
72951;SDS011;61102;51.956;5.878;2023-06-01T04:47:59;9.68;;;2.92;;
72951;SDS011;61102;51.956;5.878;2023-06-01T04:50:49;10.80;;;2.88;;
72951;SDS011;61102;51.956;5.878;2023-06-01T04:53:15;10.27;;;2.83;;
72951;SDS011;61102;51.956;5.878;2023-06-01T04:55:42;9.60;;;3.20;;
72951;SDS011;61102;51.956;5.878;2023-06-01T04:58:09;9.65;;;3.05;;
72951;SDS011;61102;51.956;5.878;2023-06-01T05:00:35;10.70;;;3.50;;
72951;SDS011;61102;51.956;5.878;2023-06-01T05:03:02;11.27;;;2.78;;
72951;SDS011;61102;51.956;5.878;2023-06-01T05:05:28;10.95;;;3.10;;
72951;SDS011;61102;51.956;5.878;2023-06-01T05:07:55;11.18;;;2.90;;
72951;SDS011;61102;51.956;5.878;2023-06-01T05:10:21;11.60;;;2.72;;
72951;SDS011;61102;51.956;5.878;2023-06-01T05:12:48;9.13;;;2.88;;
72951;SDS011;61102;51.956;5.878;2023-06-01T05:15:16;10.75;;;2.80;;
72951;SDS011;61102;51.956;5.878;2023-06-01T05:17:43;10.18;;;2.88;;
72951;SDS011;61102;51.956;5.878;2023-06-01T05:20:13;8.90;;;2.80;;
72951;SDS011;61102;51.956;5.878;2023-06-01T05:22:43;11.25;;;3.20;;
72951;SDS011;61102;51.956;5.878;2023-06-01T05:25:09;9.73;;;2.78;;
72951;SDS011;61102;51.956;5.878;2023-06-01T05:27:37;10.25;;;3.35;;
72951;SDS011;61102;51.956;5.878;2023-06-01T05:32:31;8.20;;;2.17;;
72951;SDS011;61102;51.956;5.878;2023-06-01T05:35:05;13.07;;;3.13;;
72951;SDS011;61102;51.956;5.878;2023-06-01T05:37:34;10.43;;;2.72;;
72951;SDS011;61102;51.956;5.878;2023-06-01T05:40:01;11.30;;;3.00;;
72951;SDS011;61102;51.956;5.878;2023-06-01T05:42:29;14.77;;;3.22;;
72951;SDS011;61102;51.956;5.878;2023-06-01T05:44:56;10.98;;;3.00;;
72951;SDS011;61102;51.956;5.878;2023-06-01T05:47:23;10.80;;;3.13;;
72951;SDS011;61102;51.956;5.878;2023-06-01T05:49:49;11.43;;;2.80;;
72951;SDS011;61102;51.956;5.878;2023-06-01T05:54:43;12.05;;;3.15;;
72951;SDS011;61102;51.956;5.878;2023-06-01T05:57:09;9.95;;;3.08;;
72951;SDS011;61102;51.956;5.878;2023-06-01T05:59:35;9.00;;;3.00;;
72951;SDS011;61102;51.956;5.878;2023-06-01T06:02:01;10.32;;;3.03;;
72951;SDS011;61102;51.956;5.878;2023-06-01T06:04:28;8.93;;;3.35;;
72951;SDS011;61102;51.956;5.878;2023-06-01T06:06:54;11.30;;;3.08;;
72951;SDS011;61102;51.956;5.878;2023-06-01T06:09:20;9.52;;;3.35;;
72951;SDS011;61102;51.956;5.878;2023-06-01T06:11:46;7.78;;;2.47;;
72951;SDS011;61102;51.956;5.878;2023-06-01T06:14:12;10.27;;;2.92;;
72951;SDS011;61102;51.956;5.878;2023-06-01T06:16:39;9.48;;;3.25;;
72951;SDS011;61102;51.956;5.878;2023-06-01T06:19:06;8.18;;;2.40;;
72951;SDS011;61102;51.956;5.878;2023-06-01T06:21:32;7.30;;;2.25;;
72951;SDS011;61102;51.956;5.878;2023-06-01T06:23:59;8.57;;;2.50;;
72951;SDS011;61102;51.956;5.878;2023-06-01T06:26:25;9.32;;;3.38;;
72951;SDS011;61102;51.956;5.878;2023-06-01T06:28:54;11.15;;;3.17;;
72951;SDS011;61102;51.956;5.878;2023-06-01T06:31:21;10.48;;;3.17;;
72951;SDS011;61102;51.956;5.878;2023-06-01T06:33:47;9.63;;;2.85;;
72951;SDS011;61102;51.956;5.878;2023-06-01T06:36:14;7.13;;;2.05;;
72951;SDS011;61102;51.956;5.878;2023-06-01T06:38:40;8.60;;;2.28;;
72951;SDS011;61102;51.956;5.878;2023-06-01T06:41:06;8.50;;;2.90;;
72951;SDS011;61102;51.956;5.878;2023-06-01T06:43:32;11.15;;;2.83;;
72951;SDS011;61102;51.956;5.878;2023-06-01T06:46:10;10.90;;;3.40;;
72951;SDS011;61102;51.956;5.878;2023-06-01T06:48:36;10.38;;;2.90;;
72951;SDS011;61102;51.956;5.878;2023-06-01T06:51:02;9.57;;;3.30;;
72951;SDS011;61102;51.956;5.878;2023-06-01T06:53:41;12.80;;;3.30;;
72951;SDS011;61102;51.956;5.878;2023-06-01T06:56:07;12.52;;;3.30;;
72951;SDS011;61102;51.956;5.878;2023-06-01T06:58:33;9.82;;;3.40;;
72951;SDS011;61102;51.956;5.878;2023-06-01T07:01:00;9.93;;;3.17;;
72951;SDS011;61102;51.956;5.878;2023-06-01T07:03:33;12.07;;;2.80;;
72951;SDS011;61102;51.956;5.878;2023-06-01T07:05:59;7.97;;;3.03;;
72951;SDS011;61102;51.956;5.878;2023-06-01T07:08:25;9.18;;;3.50;;
72951;SDS011;61102;51.956;5.878;2023-06-01T07:10:59;12.40;;;3.80;;
72951;SDS011;61102;51.956;5.878;2023-06-01T07:13:26;10.90;;;3.55;;
72951;SDS011;61102;51.956;5.878;2023-06-01T07:15:52;9.98;;;3.03;;
72951;SDS011;61102;51.956;5.878;2023-06-01T07:18:19;13.48;;;3.25;;
72951;SDS011;61102;51.956;5.878;2023-06-01T07:20:45;10.45;;;3.35;;
72951;SDS011;61102;51.956;5.878;2023-06-01T07:23:11;9.48;;;3.17;;
72951;SDS011;61102;51.956;5.878;2023-06-01T07:25:38;11.18;;;3.40;;
72951;SDS011;61102;51.956;5.878;2023-06-01T07:28:04;11.27;;;3.45;;
72951;SDS011;61102;51.956;5.878;2023-06-01T07:30:33;11.50;;;3.15;;
72951;SDS011;61102;51.956;5.878;2023-06-01T07:33:00;9.95;;;3.05;;
72951;SDS011;61102;51.956;5.878;2023-06-01T07:35:29;9.57;;;3.20;;
72951;SDS011;61102;51.956;5.878;2023-06-01T07:37:55;11.32;;;3.13;;
72951;SDS011;61102;51.956;5.878;2023-06-01T07:40:24;10.27;;;3.28;;
72951;SDS011;61102;51.956;5.878;2023-06-01T07:45:17;11.27;;;3.55;;
72951;SDS011;61102;51.956;5.878;2023-06-01T07:47:43;12.32;;;3.65;;
72951;SDS011;61102;51.956;5.878;2023-06-01T07:50:09;12.85;;;3.85;;
72951;SDS011;61102;51.956;5.878;2023-06-01T07:52:37;10.23;;;3.55;;
72951;SDS011;61102;51.956;5.878;2023-06-01T07:55:03;7.53;;;2.70;;
72951;SDS011;61102;51.956;5.878;2023-06-01T07:57:29;10.10;;;2.90;;
72951;SDS011;61102;51.956;5.878;2023-06-01T07:59:56;9.82;;;3.17;;
72951;SDS011;61102;51.956;5.878;2023-06-01T08:02:22;9.95;;;2.90;;
72951;SDS011;61102;51.956;5.878;2023-06-01T08:04:48;9.70;;;3.00;;
72951;SDS011;61102;51.956;5.878;2023-06-01T08:07:14;8.05;;;2.60;;
72951;SDS011;61102;51.956;5.878;2023-06-01T08:12:08;10.98;;;3.45;;
72951;SDS011;61102;51.956;5.878;2023-06-01T08:14:37;9.25;;;2.40;;
72951;SDS011;61102;51.956;5.878;2023-06-01T08:17:03;10.07;;;2.67;;
72951;SDS011;61102;51.956;5.878;2023-06-01T08:19:33;12.07;;;3.60;;
72951;SDS011;61102;51.956;5.878;2023-06-01T08:22:00;9.20;;;2.75;;
72951;SDS011;61102;51.956;5.878;2023-06-01T08:24:29;9.07;;;3.10;;
72951;SDS011;61102;51.956;5.878;2023-06-01T08:26:57;9.65;;;3.08;;
72951;SDS011;61102;51.956;5.878;2023-06-01T08:29:24;9.30;;;2.83;;
72951;SDS011;61102;51.956;5.878;2023-06-01T08:31:50;8.15;;;2.35;;
72951;SDS011;61102;51.956;5.878;2023-06-01T08:34:16;11.75;;;2.60;;
72951;SDS011;61102;51.956;5.878;2023-06-01T08:36:43;6.93;;;2.30;;
72951;SDS011;61102;51.956;5.878;2023-06-01T08:39:19;7.45;;;2.45;;
72951;SDS011;61102;51.956;5.878;2023-06-01T08:41:53;8.88;;;2.20;;
72951;SDS011;61102;51.956;5.878;2023-06-01T08:44:26;9.00;;;2.58;;
72951;SDS011;61102;51.956;5.878;2023-06-01T08:46:53;8.02;;;2.03;;
72951;SDS011;61102;51.956;5.878;2023-06-01T08:51:47;9.27;;;2.60;;
72951;SDS011;61102;51.956;5.878;2023-06-01T08:54:18;7.97;;;2.65;;
72951;SDS011;61102;51.956;5.878;2023-06-01T08:56:44;7.43;;;2.47;;
72951;SDS011;61102;51.956;5.878;2023-06-01T08:59:11;10.18;;;2.80;;
72951;SDS011;61102;51.956;5.878;2023-06-01T09:01:39;8.75;;;2.90;;
72951;SDS011;61102;51.956;5.878;2023-06-01T09:04:05;7.90;;;2.42;;
72951;SDS011;61102;51.956;5.878;2023-06-01T09:06:33;8.45;;;3.17;;
72951;SDS011;61102;51.956;5.878;2023-06-01T09:08:59;7.95;;;2.65;;
72951;SDS011;61102;51.956;5.878;2023-06-01T09:11:25;10.27;;;3.05;;
72951;SDS011;61102;51.956;5.878;2023-06-01T09:13:52;6.78;;;2.00;;
72951;SDS011;61102;51.956;5.878;2023-06-01T09:16:19;7.70;;;2.13;;
72951;SDS011;61102;51.956;5.878;2023-06-01T09:18:52;7.10;;;2.17;;
72951;SDS011;61102;51.956;5.878;2023-06-01T09:21:19;7.53;;;2.45;;
72951;SDS011;61102;51.956;5.878;2023-06-01T09:23:46;7.85;;;2.28;;
72951;SDS011;61102;51.956;5.878;2023-06-01T09:26:13;10.43;;;2.40;;
72951;SDS011;61102;51.956;5.878;2023-06-01T09:28:56;6.68;;;1.88;;
72951;SDS011;61102;51.956;5.878;2023-06-01T09:39:06;7.75;;;2.40;;
72951;SDS011;61102;51.956;5.878;2023-06-01T09:44:29;7.40;;;2.30;;
72951;SDS011;61102;51.956;5.878;2023-06-01T09:47:00;8.85;;;2.40;;
72951;SDS011;61102;51.956;5.878;2023-06-01T09:49:29;8.60;;;2.10;;
72951;SDS011;61102;51.956;5.878;2023-06-01T09:57:04;7.03;;;2.00;;
72951;SDS011;61102;51.956;5.878;2023-06-01T09:59:52;5.47;;;1.70;;
72951;SDS011;61102;51.956;5.878;2023-06-01T10:02:18;7.97;;;2.33;;
72951;SDS011;61102;51.956;5.878;2023-06-01T10:07:18;7.25;;;1.80;;
72951;SDS011;61102;51.956;5.878;2023-06-01T10:09:48;8.85;;;2.00;;
72951;SDS011;61102;51.956;5.878;2023-06-01T10:12:28;8.13;;;1.90;;
72951;SDS011;61102;51.956;5.878;2023-06-01T10:14:55;8.07;;;2.05;;
72951;SDS011;61102;51.956;5.878;2023-06-01T10:17:22;6.88;;;1.75;;
72951;SDS011;61102;51.956;5.878;2023-06-01T10:19:48;7.35;;;2.15;;
72951;SDS011;61102;51.956;5.878;2023-06-01T10:22:15;8.10;;;2.03;;
72951;SDS011;61102;51.956;5.878;2023-06-01T10:29:34;6.95;;;2.00;;
72951;SDS011;61102;51.956;5.878;2023-06-01T10:32:00;7.43;;;1.92;;
72951;SDS011;61102;51.956;5.878;2023-06-01T10:39:30;6.07;;;1.70;;
72951;SDS011;61102;51.956;5.878;2023-06-01T10:41:58;6.57;;;1.80;;
72951;SDS011;61102;51.956;5.878;2023-06-01T10:52:25;7.63;;;2.05;;
72951;SDS011;61102;51.956;5.878;2023-06-01T10:57:43;7.80;;;2.25;;
72951;SDS011;61102;51.956;5.878;2023-06-01T11:13:19;9.02;;;2.35;;
72951;SDS011;61102;51.956;5.878;2023-06-01T11:21:08;6.72;;;2.08;;
72951;SDS011;61102;51.956;5.878;2023-06-01T11:23:37;8.23;;;2.13;;
72951;SDS011;61102;51.956;5.878;2023-06-01T11:26:07;9.07;;;2.40;;
72951;SDS011;61102;51.956;5.878;2023-06-01T11:28:34;8.20;;;2.20;;
72951;SDS011;61102;51.956;5.878;2023-06-01T11:31:03;8.25;;;2.08;;
72951;SDS011;61102;51.956;5.878;2023-06-01T11:33:35;8.32;;;2.35;;
72951;SDS011;61102;51.956;5.878;2023-06-01T11:36:04;6.63;;;1.80;;
72951;SDS011;61102;51.956;5.878;2023-06-01T11:38:34;6.05;;;2.00;;
72951;SDS011;61102;51.956;5.878;2023-06-01T11:41:06;8.38;;;2.17;;
72951;SDS011;61102;51.956;5.878;2023-06-01T11:43:33;8.30;;;2.28;;
72951;SDS011;61102;51.956;5.878;2023-06-01T11:46:00;6.65;;;1.95;;
72951;SDS011;61102;51.956;5.878;2023-06-01T11:48:30;7.47;;;2.10;;
72951;SDS011;61102;51.956;5.878;2023-06-01T11:50:56;9.25;;;2.42;;
72951;SDS011;61102;51.956;5.878;2023-06-01T11:53:26;6.95;;;1.98;;
72951;SDS011;61102;51.956;5.878;2023-06-01T11:55:55;8.00;;;2.00;;
72951;SDS011;61102;51.956;5.878;2023-06-01T11:58:26;8.82;;;2.10;;
72951;SDS011;61102;51.956;5.878;2023-06-01T12:00:53;5.97;;;1.63;;
72951;SDS011;61102;51.956;5.878;2023-06-01T12:03:20;7.53;;;2.30;;
72951;SDS011;61102;51.956;5.878;2023-06-01T12:05:46;7.88;;;2.22;;
72951;SDS011;61102;51.956;5.878;2023-06-01T12:08:14;9.73;;;2.53;;
72951;SDS011;61102;51.956;5.878;2023-06-01T12:10:46;6.50;;;1.90;;
72951;SDS011;61102;51.956;5.878;2023-06-01T12:13:17;7.07;;;1.90;;
72951;SDS011;61102;51.956;5.878;2023-06-01T12:15:44;6.30;;;2.08;;
72951;SDS011;61102;51.956;5.878;2023-06-01T12:18:11;8.02;;;2.45;;
72951;SDS011;61102;51.956;5.878;2023-06-01T12:20:38;8.20;;;2.70;;
72951;SDS011;61102;51.956;5.878;2023-06-01T12:25:47;7.88;;;2.40;;
72951;SDS011;61102;51.956;5.878;2023-06-01T12:28:18;7.72;;;2.08;;
72951;SDS011;61102;51.956;5.878;2023-06-01T12:36:12;7.82;;;1.85;;
72951;SDS011;61102;51.956;5.878;2023-06-01T12:38:57;6.22;;;1.77;;
72951;SDS011;61102;51.956;5.878;2023-06-01T12:41:24;6.03;;;1.60;;
72951;SDS011;61102;51.956;5.878;2023-06-01T12:43:51;6.43;;;1.55;;
72951;SDS011;61102;51.956;5.878;2023-06-01T12:46:18;7.55;;;2.00;;
72951;SDS011;61102;51.956;5.878;2023-06-01T12:48:47;8.32;;;2.42;;
72951;SDS011;61102;51.956;5.878;2023-06-01T12:51:14;8.73;;;2.13;;
72951;SDS011;61102;51.956;5.878;2023-06-01T12:53:41;6.22;;;1.77;;
72951;SDS011;61102;51.956;5.878;2023-06-01T12:56:10;7.28;;;1.92;;
72951;SDS011;61102;51.956;5.878;2023-06-01T13:01:35;7.03;;;1.40;;
72951;SDS011;61102;51.956;5.878;2023-06-01T13:04:01;6.07;;;1.77;;
72951;SDS011;61102;51.956;5.878;2023-06-01T13:06:30;8.38;;;1.98;;
72951;SDS011;61102;51.956;5.878;2023-06-01T13:08:57;8.52;;;2.10;;
72951;SDS011;61102;51.956;5.878;2023-06-01T13:11:23;6.47;;;1.95;;
72951;SDS011;61102;51.956;5.878;2023-06-01T13:13:50;6.85;;;1.60;;
72951;SDS011;61102;51.956;5.878;2023-06-01T13:21:09;6.35;;;1.73;;
72951;SDS011;61102;51.956;5.878;2023-06-01T13:23:36;6.32;;;1.63;;
72951;SDS011;61102;51.956;5.878;2023-06-01T13:28:29;7.68;;;1.90;;
72951;SDS011;61102;51.956;5.878;2023-06-01T13:30:55;6.15;;;1.52;;
72951;SDS011;61102;51.956;5.878;2023-06-01T13:33:21;4.57;;;1.13;;
72951;SDS011;61102;51.956;5.878;2023-06-01T13:35:47;5.00;;;1.38;;
72951;SDS011;61102;51.956;5.878;2023-06-01T13:38:14;6.07;;;1.58;;
72951;SDS011;61102;51.956;5.878;2023-06-01T13:40:40;6.78;;;1.50;;
72951;SDS011;61102;51.956;5.878;2023-06-01T13:43:06;6.05;;;1.55;;
72951;SDS011;61102;51.956;5.878;2023-06-01T13:45:33;7.22;;;1.60;;
72951;SDS011;61102;51.956;5.878;2023-06-01T13:47:59;6.93;;;1.80;;
72951;SDS011;61102;51.956;5.878;2023-06-01T13:50:25;5.93;;;1.52;;
72951;SDS011;61102;51.956;5.878;2023-06-01T13:52:52;5.68;;;1.40;;
72951;SDS011;61102;51.956;5.878;2023-06-01T13:55:21;5.60;;;1.80;;
72951;SDS011;61102;51.956;5.878;2023-06-01T13:57:47;5.05;;;1.65;;
72951;SDS011;61102;51.956;5.878;2023-06-01T14:00:14;6.18;;;1.80;;
72951;SDS011;61102;51.956;5.878;2023-06-01T14:02:43;6.38;;;1.65;;
72951;SDS011;61102;51.956;5.878;2023-06-01T14:05:09;6.25;;;1.70;;
72951;SDS011;61102;51.956;5.878;2023-06-01T14:07:38;5.00;;;1.60;;
72951;SDS011;61102;51.956;5.878;2023-06-01T14:10:04;8.45;;;2.42;;
72951;SDS011;61102;51.956;5.878;2023-06-01T14:12:32;6.50;;;2.00;;
72951;SDS011;61102;51.956;5.878;2023-06-01T14:14:58;7.72;;;1.70;;
72951;SDS011;61102;51.956;5.878;2023-06-01T14:17:24;6.82;;;1.98;;
72951;SDS011;61102;51.956;5.878;2023-06-01T14:19:50;8.77;;;2.10;;
72951;SDS011;61102;51.956;5.878;2023-06-01T14:22:18;7.25;;;1.77;;
72951;SDS011;61102;51.956;5.878;2023-06-01T14:24:44;7.57;;;2.30;;
72951;SDS011;61102;51.956;5.878;2023-06-01T14:27:10;6.10;;;1.60;;
72951;SDS011;61102;51.956;5.878;2023-06-01T14:29:37;6.55;;;1.70;;
72951;SDS011;61102;51.956;5.878;2023-06-01T14:32:03;7.72;;;2.10;;
72951;SDS011;61102;51.956;5.878;2023-06-01T14:34:29;7.10;;;1.98;;
72951;SDS011;61102;51.956;5.878;2023-06-01T14:36:56;7.65;;;1.90;;
72951;SDS011;61102;51.956;5.878;2023-06-01T14:39:22;7.97;;;2.10;;
72951;SDS011;61102;51.956;5.878;2023-06-01T14:41:48;9.23;;;2.15;;
72951;SDS011;61102;51.956;5.878;2023-06-01T14:44:14;7.82;;;2.03;;
72951;SDS011;61102;51.956;5.878;2023-06-01T14:46:41;8.27;;;2.20;;
72951;SDS011;61102;51.956;5.878;2023-06-01T14:49:07;8.45;;;2.10;;
72951;SDS011;61102;51.956;5.878;2023-06-01T14:51:33;7.75;;;2.08;;
72951;SDS011;61102;51.956;5.878;2023-06-01T14:54:00;8.68;;;2.03;;
72951;SDS011;61102;51.956;5.878;2023-06-01T14:56:26;8.13;;;2.03;;
72951;SDS011;61102;51.956;5.878;2023-06-01T14:59:05;8.00;;;2.00;;
72951;SDS011;61102;51.956;5.878;2023-06-01T15:01:31;6.63;;;1.92;;
72951;SDS011;61102;51.956;5.878;2023-06-01T15:03:57;9.23;;;2.22;;
72951;SDS011;61102;51.956;5.878;2023-06-01T15:06:23;6.82;;;1.55;;
72951;SDS011;61102;51.956;5.878;2023-06-01T15:08:49;8.18;;;1.90;;
72951;SDS011;61102;51.956;5.878;2023-06-01T15:11:16;7.35;;;1.60;;
72951;SDS011;61102;51.956;5.878;2023-06-01T15:13:42;6.78;;;1.70;;
72951;SDS011;61102;51.956;5.878;2023-06-01T15:16:08;4.57;;;1.50;;
72951;SDS011;61102;51.956;5.878;2023-06-01T15:18:35;6.55;;;1.75;;
72951;SDS011;61102;51.956;5.878;2023-06-01T15:21:01;6.50;;;1.80;;
72951;SDS011;61102;51.956;5.878;2023-06-01T15:23:27;7.57;;;1.80;;
72951;SDS011;61102;51.956;5.878;2023-06-01T15:25:54;6.32;;;1.60;;
72951;SDS011;61102;51.956;5.878;2023-06-01T15:28:20;6.72;;;1.60;;
72951;SDS011;61102;51.956;5.878;2023-06-01T15:30:46;7.15;;;2.00;;
72951;SDS011;61102;51.956;5.878;2023-06-01T15:33:12;7.57;;;1.98;;
72951;SDS011;61102;51.956;5.878;2023-06-01T15:35:40;7.22;;;1.73;;
